sensor_id;sensor_type;location;lat;lon;timestamp;P1;durP1;ratioP1;P2;durP2;ratioP2
11000;SDS011;5553;48.506;8.870;2023-04-29T11:34:46;1.57;;;1.20;;
11000;SDS011;5553;48.506;8.870;2023-04-29T11:37:19;2.53;;;1.30;;
11000;SDS011;5553;48.506;8.870;2023-04-29T11:39:48;1.80;;;1.70;;
11000;SDS011;5553;48.506;8.870;2023-04-29T11:42:20;1.27;;;1.17;;
11000;SDS011;5553;48.506;8.870;2023-04-29T11:44:52;2.47;;;1.73;;
11000;SDS011;5553;48.506;8.870;2023-04-29T11:47:24;2.33;;;2.03;;
11000;SDS011;5553;48.506;8.870;2023-04-29T11:50:00;2.07;;;1.30;;
11000;SDS011;5553;48.506;8.870;2023-04-29T11:52:29;1.50;;;1.40;;
11000;SDS011;5553;48.506;8.870;2023-04-29T11:54:58;1.90;;;1.70;;
11000;SDS011;5553;48.506;8.870;2023-04-29T11:57:26;2.20;;;1.67;;
11000;SDS011;5553;48.506;8.870;2023-04-29T11:59:55;1.90;;;1.33;;
11000;SDS011;5553;48.506;8.870;2023-04-29T12:02:27;2.40;;;1.13;;
11000;SDS011;5553;48.506;8.870;2023-04-29T12:04:58;1.43;;;1.33;;
11000;SDS011;5553;48.506;8.870;2023-04-29T12:07:27;2.03;;;1.73;;
11000;SDS011;5553;48.506;8.870;2023-04-29T12:09:56;2.77;;;1.50;;
11000;SDS011;5553;48.506;8.870;2023-04-29T12:12:25;1.87;;;1.70;;
11000;SDS011;5553;48.506;8.870;2023-04-29T12:14:55;2.70;;;2.00;;
11000;SDS011;5553;48.506;8.870;2023-04-29T12:17:24;2.47;;;1.70;;
11000;SDS011;5553;48.506;8.870;2023-04-29T12:19:52;2.50;;;2.07;;
11000;SDS011;5553;48.506;8.870;2023-04-29T12:22:23;1.90;;;1.60;;
11000;SDS011;5553;48.506;8.870;2023-04-29T12:24:58;1.53;;;1.43;;
11000;SDS011;5553;48.506;8.870;2023-04-29T12:27:26;3.00;;;2.07;;
11000;SDS011;5553;48.506;8.870;2023-04-29T12:29:55;2.50;;;2.30;;
11000;SDS011;5553;48.506;8.870;2023-04-29T12:32:23;2.03;;;1.93;;
11000;SDS011;5553;48.506;8.870;2023-04-29T12:34:52;2.73;;;2.53;;
11000;SDS011;5553;48.506;8.870;2023-04-29T12:37:23;2.27;;;2.07;;
11000;SDS011;5553;48.506;8.870;2023-04-29T12:39:53;1.77;;;1.67;;
11000;SDS011;5553;48.506;8.870;2023-04-29T12:42:21;2.50;;;2.30;;
11000;SDS011;5553;48.506;8.870;2023-04-29T12:44:50;2.40;;;2.20;;
11000;SDS011;5553;48.506;8.870;2023-04-29T12:47:18;2.50;;;2.30;;
11000;SDS011;5553;48.506;8.870;2023-04-29T12:49:46;2.20;;;2.00;;
11000;SDS011;5553;48.506;8.870;2023-04-29T12:52:14;2.50;;;2.30;;
11000;SDS011;5553;48.506;8.870;2023-04-29T12:54:45;2.97;;;2.27;;
11000;SDS011;5553;48.506;8.870;2023-04-29T12:57:14;1.80;;;1.70;;
11000;SDS011;5553;48.506;8.870;2023-04-29T12:59:42;2.93;;;2.23;;
11000;SDS011;5553;48.506;8.870;2023-04-29T13:02:10;2.67;;;2.10;;
11000;SDS011;5553;48.506;8.870;2023-04-29T13:04:38;2.67;;;2.43;;
11000;SDS011;5553;48.506;8.870;2023-04-29T13:07:07;2.17;;;1.97;;
11000;SDS011;5553;48.506;8.870;2023-04-29T13:09:35;1.80;;;1.70;;
11000;SDS011;5553;48.506;8.870;2023-04-29T13:12:08;2.30;;;2.10;;
11000;SDS011;5553;48.506;8.870;2023-04-29T13:14:36;2.20;;;2.00;;
11000;SDS011;5553;48.506;8.870;2023-04-29T13:17:04;4.20;;;1.90;;
11000;SDS011;5553;48.506;8.870;2023-04-29T13:19:32;2.50;;;2.13;;
11000;SDS011;5553;48.506;8.870;2023-04-29T13:22:01;6.50;;;2.40;;
11000;SDS011;5553;48.506;8.870;2023-04-29T13:24:29;4.07;;;1.97;;
11000;SDS011;5553;48.506;8.870;2023-04-29T13:26:59;2.17;;;2.07;;
11000;SDS011;5553;48.506;8.870;2023-04-29T13:29:30;3.57;;;1.80;;
11000;SDS011;5553;48.506;8.870;2023-04-29T13:31:58;2.20;;;2.10;;
11000;SDS011;5553;48.506;8.870;2023-04-29T13:34:27;1.90;;;1.80;;
11000;SDS011;5553;48.506;8.870;2023-04-29T13:36:55;1.40;;;1.30;;
11000;SDS011;5553;48.506;8.870;2023-04-29T13:39:23;2.00;;;1.90;;
11000;SDS011;5553;48.506;8.870;2023-04-29T13:41:51;1.83;;;1.73;;
11000;SDS011;5553;48.506;8.870;2023-04-29T13:44:20;1.90;;;1.80;;
11000;SDS011;5553;48.506;8.870;2023-04-29T13:46:51;1.73;;;1.60;;
11000;SDS011;5553;48.506;8.870;2023-04-29T13:49:19;2.07;;;1.73;;
11000;SDS011;5553;48.506;8.870;2023-04-29T13:51:47;1.87;;;1.73;;
11000;SDS011;5553;48.506;8.870;2023-04-29T13:54:16;2.10;;;1.90;;
11000;SDS011;5553;48.506;8.870;2023-04-29T13:56:45;2.30;;;1.80;;
11000;SDS011;5553;48.506;8.870;2023-04-29T13:59:13;3.47;;;2.20;;
11000;SDS011;5553;48.506;8.870;2023-04-29T14:01:41;2.53;;;1.80;;
11000;SDS011;5553;48.506;8.870;2023-04-29T14:04:12;2.00;;;1.80;;
11000;SDS011;5553;48.506;8.870;2023-04-29T14:06:41;2.70;;;2.40;;
11000;SDS011;5553;48.506;8.870;2023-04-29T14:09:09;2.50;;;2.30;;
11000;SDS011;5553;48.506;8.870;2023-04-29T14:11:38;1.87;;;1.77;;
11000;SDS011;5553;48.506;8.870;2023-04-29T14:14:06;2.30;;;2.10;;
11000;SDS011;5553;48.506;8.870;2023-04-29T14:16:34;2.30;;;2.10;;
11000;SDS011;5553;48.506;8.870;2023-04-29T14:19:03;2.90;;;2.20;;
11000;SDS011;5553;48.506;8.870;2023-04-29T14:21:34;2.50;;;2.30;;
11000;SDS011;5553;48.506;8.870;2023-04-29T14:24:02;2.00;;;1.80;;
11000;SDS011;5553;48.506;8.870;2023-04-29T14:26:30;2.00;;;1.70;;
11000;SDS011;5553;48.506;8.870;2023-04-29T14:29:00;2.37;;;2.00;;
11000;SDS011;5553;48.506;8.870;2023-04-29T14:31:29;2.63;;;2.43;;
11000;SDS011;5553;48.506;8.870;2023-04-29T14:34:02;6.53;;;4.17;;
11000;SDS011;5553;48.506;8.870;2023-04-29T14:36:30;4.67;;;4.07;;
11000;SDS011;5553;48.506;8.870;2023-04-29T14:39:02;6.13;;;3.70;;
11000;SDS011;5553;48.506;8.870;2023-04-29T14:41:30;5.40;;;4.90;;
11000;SDS011;5553;48.506;8.870;2023-04-29T14:43:59;4.63;;;4.23;;
11000;SDS011;5553;48.506;8.870;2023-04-29T14:46:27;12.90;;;4.63;;
11000;SDS011;5553;48.506;8.870;2023-04-29T14:48:55;6.10;;;5.07;;
11000;SDS011;5553;48.506;8.870;2023-04-29T14:51:24;5.43;;;5.00;;
11000;SDS011;5553;48.506;8.870;2023-04-29T14:53:52;5.30;;;4.80;;
11000;SDS011;5553;48.506;8.870;2023-04-29T14:56:23;5.40;;;4.90;;
11000;SDS011;5553;48.506;8.870;2023-04-29T14:58:51;4.87;;;4.37;;
11000;SDS011;5553;48.506;8.870;2023-04-29T15:01:19;5.20;;;4.80;;
11000;SDS011;5553;48.506;8.870;2023-04-29T15:03:48;6.63;;;4.80;;
11000;SDS011;5553;48.506;8.870;2023-04-29T15:06:16;5.13;;;4.63;;
11000;SDS011;5553;48.506;8.870;2023-04-29T15:08:44;8.73;;;6.30;;
11000;SDS011;5553;48.506;8.870;2023-04-29T15:11:12;5.03;;;4.53;;
11000;SDS011;5553;48.506;8.870;2023-04-29T15:13:43;7.87;;;5.70;;
11000;SDS011;5553;48.506;8.870;2023-04-29T15:16:11;10.50;;;6.83;;
11000;SDS011;5553;48.506;8.870;2023-04-29T15:18:40;6.87;;;6.00;;
11000;SDS011;5553;48.506;8.870;2023-04-29T15:21:09;7.03;;;6.27;;
11000;SDS011;5553;48.506;8.870;2023-04-29T15:23:37;8.80;;;6.87;;
11000;SDS011;5553;48.506;8.870;2023-04-29T15:26:06;7.97;;;6.00;;
11000;SDS011;5553;48.506;8.870;2023-04-29T15:28:34;8.00;;;6.40;;
11000;SDS011;5553;48.506;8.870;2023-04-29T15:31:05;8.47;;;5.63;;
11000;SDS011;5553;48.506;8.870;2023-04-29T15:33:34;6.67;;;6.00;;
11000;SDS011;5553;48.506;8.870;2023-04-29T15:36:02;8.37;;;6.87;;
11000;SDS011;5553;48.506;8.870;2023-04-29T15:38:30;7.10;;;6.40;;
11000;SDS011;5553;48.506;8.870;2023-04-29T15:40:59;6.70;;;6.00;;
11000;SDS011;5553;48.506;8.870;2023-04-29T15:43:28;9.70;;;6.77;;
11000;SDS011;5553;48.506;8.870;2023-04-29T15:45:57;8.97;;;6.30;;
11000;SDS011;5553;48.506;8.870;2023-04-29T15:48:28;6.67;;;6.00;;
11000;SDS011;5553;48.506;8.870;2023-04-29T15:50:56;9.77;;;6.90;;
11000;SDS011;5553;48.506;8.870;2023-04-29T15:53:25;11.80;;;9.00;;
11000;SDS011;5553;48.506;8.870;2023-04-29T15:55:53;11.30;;;7.27;;
11000;SDS011;5553;48.506;8.870;2023-04-29T15:58:21;9.60;;;7.07;;
11000;SDS011;5553;48.506;8.870;2023-04-29T16:00:49;11.10;;;7.07;;
11000;SDS011;5553;48.506;8.870;2023-04-29T16:03:18;8.07;;;7.13;;
11000;SDS011;5553;48.506;8.870;2023-04-29T16:05:49;8.50;;;6.00;;
11000;SDS011;5553;48.506;8.870;2023-04-29T16:08:17;10.10;;;6.77;;
11000;SDS011;5553;48.506;8.870;2023-04-29T16:10:45;9.13;;;6.07;;
11000;SDS011;5553;48.506;8.870;2023-04-29T16:13:14;7.67;;;5.73;;
11000;SDS011;5553;48.506;8.870;2023-04-29T16:15:42;9.03;;;6.83;;
11000;SDS011;5553;48.506;8.870;2023-04-29T16:18:10;11.00;;;7.70;;
11000;SDS011;5553;48.506;8.870;2023-04-29T16:20:39;10.20;;;6.77;;
11000;SDS011;5553;48.506;8.870;2023-04-29T16:23:09;10.50;;;7.40;;
11000;SDS011;5553;48.506;8.870;2023-04-29T16:25:38;8.87;;;6.97;;
11000;SDS011;5553;48.506;8.870;2023-04-29T16:28:07;9.47;;;7.53;;
11000;SDS011;5553;48.506;8.870;2023-04-29T16:30:35;8.30;;;6.30;;
11000;SDS011;5553;48.506;8.870;2023-04-29T16:33:04;12.40;;;8.00;;
11000;SDS011;5553;48.506;8.870;2023-04-29T16:35:32;10.13;;;7.27;;
11000;SDS011;5553;48.506;8.870;2023-04-29T16:38:00;9.30;;;7.27;;
11000;SDS011;5553;48.506;8.870;2023-04-29T16:40:31;10.40;;;7.10;;
11000;SDS011;5553;48.506;8.870;2023-04-29T16:42:59;11.10;;;8.70;;
11000;SDS011;5553;48.506;8.870;2023-04-29T16:45:27;9.50;;;6.93;;
11000;SDS011;5553;48.506;8.870;2023-04-29T16:47:56;11.60;;;7.40;;
11000;SDS011;5553;48.506;8.870;2023-04-29T16:50:24;9.03;;;7.60;;
11000;SDS011;5553;48.506;8.870;2023-04-29T16:52:53;10.53;;;8.30;;
11000;SDS011;5553;48.506;8.870;2023-04-29T16:55:21;12.03;;;8.93;;
11000;SDS011;5553;48.506;8.870;2023-04-29T16:57:52;10.73;;;8.40;;
11000;SDS011;5553;48.506;8.870;2023-04-29T17:00:21;10.50;;;7.93;;
11000;SDS011;5553;48.506;8.870;2023-04-29T17:02:49;12.07;;;8.90;;
11000;SDS011;5553;48.506;8.870;2023-04-29T17:05:18;13.57;;;9.50;;
11000;SDS011;5553;48.506;8.870;2023-04-29T17:07:46;13.40;;;8.63;;
11000;SDS011;5553;48.506;8.870;2023-04-29T17:10:16;16.30;;;9.33;;
11000;SDS011;5553;48.506;8.870;2023-04-29T17:12:44;16.03;;;9.17;;
11000;SDS011;5553;48.506;8.870;2023-04-29T17:15:15;12.77;;;9.30;;
11000;SDS011;5553;48.506;8.870;2023-04-29T17:17:43;12.60;;;9.80;;
11000;SDS011;5553;48.506;8.870;2023-04-29T17:20:12;14.10;;;9.13;;
11000;SDS011;5553;48.506;8.870;2023-04-29T17:22:40;10.80;;;8.20;;
11000;SDS011;5553;48.506;8.870;2023-04-29T17:25:12;12.90;;;9.33;;
11000;SDS011;5553;48.506;8.870;2023-04-29T17:27:41;14.40;;;9.40;;
11000;SDS011;5553;48.506;8.870;2023-04-29T17:30:10;13.60;;;9.33;;
11000;SDS011;5553;48.506;8.870;2023-04-29T17:32:42;12.23;;;9.10;;
11000;SDS011;5553;48.506;8.870;2023-04-29T17:35:13;9.07;;;7.93;;
11000;SDS011;5553;48.506;8.870;2023-04-29T17:37:41;12.73;;;7.73;;
11000;SDS011;5553;48.506;8.870;2023-04-29T17:40:11;10.20;;;7.97;;
11000;SDS011;5553;48.506;8.870;2023-04-29T17:42:39;12.63;;;7.87;;
11000;SDS011;5553;48.506;8.870;2023-04-29T17:45:08;11.47;;;8.70;;
11000;SDS011;5553;48.506;8.870;2023-04-29T17:47:37;11.50;;;8.30;;
11000;SDS011;5553;48.506;8.870;2023-04-29T17:50:08;9.30;;;7.93;;
11000;SDS011;5553;48.506;8.870;2023-04-29T17:52:37;11.50;;;8.40;;
11000;SDS011;5553;48.506;8.870;2023-04-29T17:55:06;13.87;;;9.50;;
11000;SDS011;5553;48.506;8.870;2023-04-29T17:57:34;10.60;;;8.43;;
11000;SDS011;5553;48.506;8.870;2023-04-29T18:00:04;9.57;;;7.33;;
11000;SDS011;5553;48.506;8.870;2023-04-29T18:02:34;12.47;;;7.70;;
11000;SDS011;5553;48.506;8.870;2023-04-29T18:05:03;9.07;;;7.57;;
11000;SDS011;5553;48.506;8.870;2023-04-29T18:07:35;9.97;;;7.07;;
11000;SDS011;5553;48.506;8.870;2023-04-29T18:10:03;10.20;;;8.13;;
11000;SDS011;5553;48.506;8.870;2023-04-29T18:12:33;9.73;;;7.40;;
11000;SDS011;5553;48.506;8.870;2023-04-29T18:15:01;8.53;;;7.20;;
11000;SDS011;5553;48.506;8.870;2023-04-29T18:17:31;12.00;;;7.60;;
11000;SDS011;5553;48.506;8.870;2023-04-29T18:20:00;7.77;;;6.97;;
11000;SDS011;5553;48.506;8.870;2023-04-29T18:22:30;8.77;;;7.17;;
11000;SDS011;5553;48.506;8.870;2023-04-29T18:25:01;9.33;;;7.57;;
11000;SDS011;5553;48.506;8.870;2023-04-29T18:27:29;9.90;;;7.30;;
11000;SDS011;5553;48.506;8.870;2023-04-29T18:29:57;9.00;;;7.50;;
11000;SDS011;5553;48.506;8.870;2023-04-29T18:32:25;10.07;;;8.10;;
11000;SDS011;5553;48.506;8.870;2023-04-29T18:34:54;10.33;;;8.30;;
11000;SDS011;5553;48.506;8.870;2023-04-29T18:37:23;11.73;;;6.97;;
11000;SDS011;5553;48.506;8.870;2023-04-29T18:39:51;9.60;;;7.23;;
11000;SDS011;5553;48.506;8.870;2023-04-29T18:42:22;9.30;;;6.50;;
11000;SDS011;5553;48.506;8.870;2023-04-29T18:44:51;7.80;;;6.70;;
11000;SDS011;5553;48.506;8.870;2023-04-29T18:47:19;10.00;;;7.23;;
11000;SDS011;5553;48.506;8.870;2023-04-29T18:49:47;11.83;;;7.90;;
11000;SDS011;5553;48.506;8.870;2023-04-29T18:52:16;9.33;;;6.40;;
11000;SDS011;5553;48.506;8.870;2023-04-29T18:54:44;7.23;;;5.73;;
11000;SDS011;5553;48.506;8.870;2023-04-29T18:57:12;11.03;;;6.97;;
11000;SDS011;5553;48.506;8.870;2023-04-29T18:59:43;7.27;;;6.13;;
11000;SDS011;5553;48.506;8.870;2023-04-29T19:02:12;11.53;;;7.10;;
11000;SDS011;5553;48.506;8.870;2023-04-29T19:04:40;8.47;;;7.10;;
11000;SDS011;5553;48.506;8.870;2023-04-29T19:07:08;8.67;;;6.40;;
11000;SDS011;5553;48.506;8.870;2023-04-29T19:09:36;8.60;;;6.83;;
11000;SDS011;5553;48.506;8.870;2023-04-29T19:12:05;7.83;;;6.27;;
11000;SDS011;5553;48.506;8.870;2023-04-29T19:14:33;9.20;;;7.13;;
11000;SDS011;5553;48.506;8.870;2023-04-29T19:17:05;7.47;;;5.50;;
11000;SDS011;5553;48.506;8.870;2023-04-29T19:19:33;6.83;;;5.57;;
11000;SDS011;5553;48.506;8.870;2023-04-29T19:22:01;6.07;;;5.47;;
11000;SDS011;5553;48.506;8.870;2023-04-29T19:24:31;9.17;;;6.37;;
11000;SDS011;5553;48.506;8.870;2023-04-29T19:27:01;6.33;;;5.03;;
11000;SDS011;5553;48.506;8.870;2023-04-29T19:29:30;11.63;;;7.90;;
11000;SDS011;5553;48.506;8.870;2023-04-29T19:31:58;9.23;;;6.73;;
11000;SDS011;5553;48.506;8.870;2023-04-29T19:34:29;8.63;;;6.27;;
11000;SDS011;5553;48.506;8.870;2023-04-29T19:36:57;10.13;;;6.30;;
11000;SDS011;5553;48.506;8.870;2023-04-29T19:39:26;9.10;;;6.23;;
11000;SDS011;5553;48.506;8.870;2023-04-29T19:41:54;9.13;;;7.10;;
11000;SDS011;5553;48.506;8.870;2023-04-29T19:44:23;9.07;;;6.53;;
11000;SDS011;5553;48.506;8.870;2023-04-29T19:46:51;9.07;;;6.27;;
11000;SDS011;5553;48.506;8.870;2023-04-29T19:49:20;8.63;;;6.57;;
11000;SDS011;5553;48.506;8.870;2023-04-29T19:51:50;6.83;;;5.83;;
11000;SDS011;5553;48.506;8.870;2023-04-29T19:54:19;10.70;;;7.50;;
11000;SDS011;5553;48.506;8.870;2023-04-29T19:56:47;11.43;;;7.33;;
11000;SDS011;5553;48.506;8.870;2023-04-29T19:59:15;9.73;;;7.07;;
11000;SDS011;5553;48.506;8.870;2023-04-29T20:01:43;9.70;;;7.57;;
11000;SDS011;5553;48.506;8.870;2023-04-29T20:04:12;9.30;;;7.40;;
11000;SDS011;5553;48.506;8.870;2023-04-29T20:06:40;7.23;;;6.30;;
11000;SDS011;5553;48.506;8.870;2023-04-29T20:09:11;8.87;;;6.70;;
11000;SDS011;5553;48.506;8.870;2023-04-29T20:11:40;8.20;;;6.70;;
11000;SDS011;5553;48.506;8.870;2023-04-29T20:14:08;8.07;;;6.30;;
11000;SDS011;5553;48.506;8.870;2023-04-29T20:16:36;9.03;;;7.47;;
11000;SDS011;5553;48.506;8.870;2023-04-29T20:19:05;10.30;;;7.00;;
11000;SDS011;5553;48.506;8.870;2023-04-29T20:21:33;12.27;;;7.27;;
11000;SDS011;5553;48.506;8.870;2023-04-29T20:24:03;9.00;;;7.17;;
11000;SDS011;5553;48.506;8.870;2023-04-29T20:26:35;7.33;;;6.03;;
11000;SDS011;5553;48.506;8.870;2023-04-29T20:29:03;10.63;;;7.13;;
11000;SDS011;5553;48.506;8.870;2023-04-29T20:31:31;11.07;;;7.10;;
11000;SDS011;5553;48.506;8.870;2023-04-29T20:33:59;8.50;;;6.50;;
11000;SDS011;5553;48.506;8.870;2023-04-29T20:36:28;9.77;;;7.60;;
11000;SDS011;5553;48.506;8.870;2023-04-29T20:38:56;10.83;;;7.80;;
11000;SDS011;5553;48.506;8.870;2023-04-29T20:41:25;13.77;;;7.10;;
11000;SDS011;5553;48.506;8.870;2023-04-29T20:43:56;9.50;;;7.73;;
11000;SDS011;5553;48.506;8.870;2023-04-29T20:46:25;10.53;;;7.23;;
11000;SDS011;5553;48.506;8.870;2023-04-29T20:48:53;10.17;;;7.30;;
11000;SDS011;5553;48.506;8.870;2023-04-29T20:51:22;11.27;;;7.50;;
11000;SDS011;5553;48.506;8.870;2023-04-29T20:53:50;11.03;;;8.57;;
11000;SDS011;5553;48.506;8.870;2023-04-29T20:56:19;12.23;;;8.00;;
11000;SDS011;5553;48.506;8.870;2023-04-29T20:58:47;8.50;;;6.40;;
11000;SDS011;5553;48.506;8.870;2023-04-29T21:01:18;9.50;;;6.90;;
11000;SDS011;5553;48.506;8.870;2023-04-29T21:03:46;12.50;;;8.00;;
11000;SDS011;5553;48.506;8.870;2023-04-29T21:06:14;10.20;;;8.60;;
11000;SDS011;5553;48.506;8.870;2023-04-29T21:08:43;10.37;;;7.77;;
11000;SDS011;5553;48.506;8.870;2023-04-29T21:11:11;10.77;;;7.57;;
11000;SDS011;5553;48.506;8.870;2023-04-29T21:13:39;10.20;;;6.97;;
11000;SDS011;5553;48.506;8.870;2023-04-29T21:16:13;13.53;;;8.50;;
11000;SDS011;5553;48.506;8.870;2023-04-29T21:18:44;11.77;;;8.57;;
11000;SDS011;5553;48.506;8.870;2023-04-29T21:21:13;12.13;;;8.07;;
11000;SDS011;5553;48.506;8.870;2023-04-29T21:23:41;11.77;;;8.10;;
11000;SDS011;5553;48.506;8.870;2023-04-29T21:26:09;12.93;;;8.07;;
11000;SDS011;5553;48.506;8.870;2023-04-29T21:28:39;11.27;;;7.90;;
11000;SDS011;5553;48.506;8.870;2023-04-29T21:31:07;10.90;;;7.60;;
11000;SDS011;5553;48.506;8.870;2023-04-29T21:33:40;11.50;;;8.30;;
11000;SDS011;5553;48.506;8.870;2023-04-29T21:36:11;12.03;;;7.60;;
11000;SDS011;5553;48.506;8.870;2023-04-29T21:38:40;9.50;;;6.70;;
11000;SDS011;5553;48.506;8.870;2023-04-29T21:41:11;13.30;;;8.90;;
11000;SDS011;5553;48.506;8.870;2023-04-29T21:43:46;11.57;;;8.90;;
11000;SDS011;5553;48.506;8.870;2023-04-29T21:46:15;11.90;;;8.90;;
11000;SDS011;5553;48.506;8.870;2023-04-29T21:48:44;13.90;;;8.67;;
11000;SDS011;5553;48.506;8.870;2023-04-29T21:51:15;13.20;;;8.43;;
11000;SDS011;5553;48.506;8.870;2023-04-29T21:53:46;13.03;;;8.77;;
11000;SDS011;5553;48.506;8.870;2023-04-29T21:56:15;11.30;;;7.90;;
11000;SDS011;5553;48.506;8.870;2023-04-29T21:58:43;12.13;;;9.03;;
11000;SDS011;5553;48.506;8.870;2023-04-29T22:01:11;12.53;;;9.33;;
11000;SDS011;5553;48.506;8.870;2023-04-29T22:04:04;13.17;;;9.10;;
11000;SDS011;5553;48.506;8.870;2023-04-29T22:06:35;17.27;;;10.10;;
11000;SDS011;5553;48.506;8.870;2023-04-29T22:09:04;13.30;;;8.97;;
11000;SDS011;5553;48.506;8.870;2023-04-29T22:11:33;12.40;;;9.40;;
11000;SDS011;5553;48.506;8.870;2023-04-29T22:14:01;12.83;;;8.17;;
11000;SDS011;5553;48.506;8.870;2023-04-29T22:16:29;12.77;;;7.90;;
11000;SDS011;5553;48.506;8.870;2023-04-29T22:18:59;13.13;;;9.00;;
11000;SDS011;5553;48.506;8.870;2023-04-29T22:21:28;11.80;;;7.90;;
11000;SDS011;5553;48.506;8.870;2023-04-29T22:23:59;12.90;;;9.40;;
11000;SDS011;5553;48.506;8.870;2023-04-29T22:26:27;14.70;;;9.30;;
11000;SDS011;5553;48.506;8.870;2023-04-29T22:28:56;14.30;;;9.07;;
11000;SDS011;5553;48.506;8.870;2023-04-29T22:31:24;11.27;;;7.80;;
11000;SDS011;5553;48.506;8.870;2023-04-29T22:33:52;12.90;;;8.63;;
11000;SDS011;5553;48.506;8.870;2023-04-29T22:36:21;16.63;;;10.00;;
11000;SDS011;5553;48.506;8.870;2023-04-29T22:38:49;12.83;;;9.63;;
11000;SDS011;5553;48.506;8.870;2023-04-29T22:41:20;16.07;;;10.90;;
11000;SDS011;5553;48.506;8.870;2023-04-29T22:43:48;16.77;;;10.33;;
11000;SDS011;5553;48.506;8.870;2023-04-29T22:46:21;13.33;;;9.77;;
11000;SDS011;5553;48.506;8.870;2023-04-29T22:48:49;14.63;;;9.33;;
11000;SDS011;5553;48.506;8.870;2023-04-29T22:51:17;14.37;;;10.30;;
11000;SDS011;5553;48.506;8.870;2023-04-29T22:53:46;13.20;;;9.80;;
11000;SDS011;5553;48.506;8.870;2023-04-29T22:56:14;16.07;;;10.07;;
11000;SDS011;5553;48.506;8.870;2023-04-29T22:58:45;14.60;;;10.23;;
11000;SDS011;5553;48.506;8.870;2023-04-29T23:01:13;15.33;;;9.20;;
11000;SDS011;5553;48.506;8.870;2023-04-29T23:03:42;13.17;;;9.10;;
11000;SDS011;5553;48.506;8.870;2023-04-29T23:06:10;14.83;;;9.40;;
11000;SDS011;5553;48.506;8.870;2023-04-29T23:08:38;17.47;;;10.60;;
11000;SDS011;5553;48.506;8.870;2023-04-29T23:11:08;16.57;;;11.13;;
11000;SDS011;5553;48.506;8.870;2023-04-29T23:13:37;17.13;;;11.67;;
11000;SDS011;5553;48.506;8.870;2023-04-29T23:16:08;13.93;;;9.97;;
11000;SDS011;5553;48.506;8.870;2023-04-29T23:18:36;15.47;;;9.60;;
11000;SDS011;5553;48.506;8.870;2023-04-29T23:21:04;13.77;;;9.50;;
11000;SDS011;5553;48.506;8.870;2023-04-29T23:23:33;14.00;;;9.30;;
11000;SDS011;5553;48.506;8.870;2023-04-29T23:26:01;18.97;;;8.73;;
11000;SDS011;5553;48.506;8.870;2023-04-29T23:28:29;11.17;;;7.53;;
11000;SDS011;5553;48.506;8.870;2023-04-29T23:30:57;13.53;;;9.03;;
11000;SDS011;5553;48.506;8.870;2023-04-29T23:33:28;16.03;;;9.60;;
11000;SDS011;5553;48.506;8.870;2023-04-29T23:35:56;13.57;;;8.90;;
